createdAt,value
2022-11-03T00:01:36.285Z,8.29
2022-11-03T00:04:04.563Z,8.22
2022-11-03T00:06:32.630Z,8.18
2022-11-03T00:09:01.562Z,8.18
2022-11-03T00:11:33.166Z,8.31
2022-11-03T00:14:01.084Z,8.28
2022-11-03T00:16:29.063Z,8.42
2022-11-03T00:18:56.837Z,8.22
2022-11-03T00:21:24.777Z,8.07
2022-11-03T00:23:52.947Z,8.31
2022-11-03T00:26:22.382Z,8.38
2022-11-03T00:28:53.508Z,8.03
2022-11-03T00:31:23.089Z,8.08
2022-11-03T00:33:51.349Z,7.87
2022-11-03T00:36:21.200Z,8.04
2022-11-03T00:38:49.373Z,8.05
2022-11-03T00:41:17.839Z,8.05
2022-11-03T00:43:45.633Z,7.93
2022-11-03T00:46:15.154Z,7.93
2022-11-03T00:48:42.953Z,7.95
2022-11-03T00:51:12.268Z,7.67
2022-11-03T00:53:42.144Z,7.85
2022-11-03T00:56:14.133Z,7.82
2022-11-03T00:58:42.556Z,7.84
2022-11-03T01:01:13.391Z,7.59
2022-11-03T01:04:05.783Z,7.81
2022-11-03T01:06:51.756Z,7.65
2022-11-03T01:09:20.255Z,7.70
2022-11-03T01:11:55.307Z,7.91
2022-11-03T01:14:23.228Z,7.72
2022-11-03T01:16:50.943Z,7.82
2022-11-03T01:19:20.261Z,7.67
2022-11-03T01:21:48.109Z,7.65
2022-11-03T01:24:15.831Z,7.64
2022-11-03T01:26:43.573Z,7.52
2022-11-03T01:29:11.291Z,7.62
2022-11-03T01:31:38.978Z,7.60
2022-11-03T01:34:06.744Z,7.43
2022-11-03T01:36:35.799Z,7.54
2022-11-03T01:39:03.529Z,7.41
2022-11-03T01:41:31.272Z,7.43
2022-11-03T01:44:41.473Z,7.49
2022-11-03T01:47:27.342Z,7.36
2022-11-03T01:49:58.319Z,7.38
2022-11-03T01:52:33.996Z,7.52
2022-11-03T01:55:05.332Z,7.51
2022-11-03T01:57:37.492Z,7.43
2022-11-03T02:00:06.730Z,7.46
2022-11-03T02:02:34.655Z,7.73
2022-11-03T02:05:05.853Z,7.52
2022-11-03T02:07:41.297Z,7.67
2022-11-03T02:10:10.370Z,7.80
2022-11-03T02:12:38.585Z,7.78
2022-11-03T02:15:09.936Z,7.94
2022-11-03T02:17:39.043Z,7.96
2022-11-03T02:20:11.154Z,8.02
2022-11-03T02:23:06.167Z,7.98
2022-11-03T02:25:54.253Z,7.99
2022-11-03T02:28:25.244Z,8.07
2022-11-03T02:31:00.216Z,8.04
2022-11-03T02:33:37.963Z,8.16
2022-11-03T02:36:12.636Z,8.00
2022-11-03T02:38:55.312Z,8.57
2022-11-03T02:41:26.129Z,8.61
2022-11-03T02:43:56.255Z,8.76
2022-11-03T02:46:26.738Z,8.68
2022-11-03T02:48:54.536Z,9.00
2022-11-03T02:51:22.305Z,8.84
2022-11-03T02:54:03.042Z,8.69
2022-11-03T02:56:32.985Z,8.79
2022-11-03T02:59:03.263Z,8.81
2022-11-03T03:01:47.417Z,8.76
2022-11-03T03:04:22.522Z,8.90
2022-11-03T03:06:54.406Z,8.93
2022-11-03T03:09:26.106Z,9.14
2022-11-03T03:11:57.969Z,8.78
2022-11-03T03:14:31.679Z,8.93
2022-11-03T03:17:01.951Z,9.08
2022-11-03T03:19:45.233Z,9.16
2022-11-03T03:22:19.811Z,8.86
2022-11-03T03:24:54.549Z,8.89
2022-11-03T03:27:27.607Z,8.83
2022-11-03T03:29:59.637Z,8.93
2022-11-03T03:32:30.396Z,8.72
2022-11-03T03:35:00.462Z,8.79
2022-11-03T03:37:30.395Z,8.88
2022-11-03T03:40:04.686Z,8.78
2022-11-03T03:42:37.316Z,8.82
2022-11-03T03:45:07.496Z,9.10
2022-11-03T03:47:38.687Z,8.72
2022-11-03T03:50:07.606Z,8.80
2022-11-03T03:52:38.467Z,8.65
2022-11-03T03:55:15.334Z,8.67
2022-11-03T03:57:45.299Z,8.97
2022-11-03T04:00:16.028Z,8.83
2022-11-03T04:02:43.917Z,8.70
2022-11-03T04:05:11.677Z,8.68
2022-11-03T04:07:48.148Z,8.62
2022-11-03T04:10:16.365Z,8.90
2022-11-03T04:13:03.855Z,8.85
2022-11-03T04:15:50.160Z,8.83
2022-11-03T04:18:36.362Z,8.87
2022-11-03T04:21:22.078Z,8.95
2022-11-03T04:23:50.030Z,8.97
2022-11-03T04:26:22.859Z,8.94
2022-11-03T04:28:54.089Z,8.80
2022-11-03T04:31:22.495Z,9.00
2022-11-03T04:33:53.880Z,8.89
2022-11-03T04:36:23.543Z,8.98
2022-11-03T04:38:52.429Z,8.94
2022-11-03T04:41:23.010Z,9.03
2022-11-03T04:43:53.696Z,8.91
2022-11-03T04:46:26.374Z,8.80
2022-11-03T04:48:54.835Z,8.93
2022-11-03T04:51:26.479Z,9.03
2022-11-03T04:53:56.566Z,8.58
2022-11-03T04:56:26.314Z,8.83
2022-11-03T04:58:55.477Z,8.85
2022-11-03T05:01:25.111Z,8.77
2022-11-03T05:03:56.529Z,8.97
2022-11-03T05:06:27.972Z,8.77
2022-11-03T05:08:59.672Z,8.85
2022-11-03T05:11:32.616Z,8.78
2022-11-03T05:14:04.156Z,8.48
2022-11-03T05:16:32.752Z,8.74
2022-11-03T05:19:01.164Z,8.85
2022-11-03T05:21:29.381Z,8.50
2022-11-03T05:24:02.402Z,8.90
2022-11-03T05:26:33.855Z,9.04
2022-11-03T05:29:04.860Z,8.65
2022-11-03T05:31:36.424Z,8.62
2022-11-03T05:34:14.207Z,9.07
2022-11-03T05:36:41.986Z,8.60
2022-11-03T05:39:26.994Z,8.65
2022-11-03T05:41:57.435Z,8.51
2022-11-03T05:44:36.651Z,8.64
2022-11-03T05:47:10.287Z,8.48
2022-11-03T05:49:38.074Z,8.58
2022-11-03T05:52:07.095Z,8.39
2022-11-03T05:54:35.911Z,8.58
2022-11-03T05:57:03.639Z,8.65
2022-11-03T05:59:32.675Z,8.43
2022-11-03T06:02:02.073Z,8.46
2022-11-03T06:04:33.795Z,8.68
2022-11-03T06:07:04.188Z,8.55
2022-11-03T06:09:34.818Z,8.58
2022-11-03T06:12:06.654Z,8.64
2022-11-03T06:14:37.629Z,8.59
2022-11-03T06:17:07.278Z,8.57
2022-11-03T06:19:39.213Z,8.51
2022-11-03T06:22:15.408Z,8.86
2022-11-03T06:24:43.681Z,8.61
2022-11-03T06:27:14.272Z,8.63
2022-11-03T06:29:48.700Z,8.54
2022-11-03T06:32:16.449Z,8.69
2022-11-03T06:34:49.568Z,8.50
2022-11-03T06:37:21.524Z,8.71
2022-11-03T06:39:50.796Z,8.72
2022-11-03T06:42:22.129Z,8.73
2022-11-03T06:44:52.640Z,8.61
2022-11-03T06:47:24.698Z,8.87
2022-11-03T06:49:54.256Z,8.69
2022-11-03T06:52:26.718Z,8.85
2022-11-03T06:55:00.529Z,8.62
2022-11-03T06:57:28.693Z,8.99
2022-11-03T07:00:13.244Z,8.60
2022-11-03T07:02:56.717Z,8.86
2022-11-03T07:05:26.368Z,8.74
2022-11-03T07:07:56.125Z,8.84
2022-11-03T07:10:38.428Z,8.97
2022-11-03T07:13:18.959Z,8.88
2022-11-03T07:15:48.708Z,8.94
2022-11-03T07:18:29.715Z,8.94
2022-11-03T07:21:03.075Z,9.03
2022-11-03T07:23:32.514Z,9.15
2022-11-03T07:26:02.276Z,9.19
2022-11-03T07:28:35.285Z,9.03
2022-11-03T07:31:16.443Z,9.29
2022-11-03T07:33:45.088Z,9.10
2022-11-03T07:36:17.830Z,9.56
2022-11-03T07:38:49.204Z,9.64
2022-11-03T07:41:21.575Z,9.74
2022-11-03T07:43:54.414Z,9.66
2022-11-03T07:46:26.073Z,9.41
2022-11-03T07:48:56.586Z,9.87
2022-11-03T07:51:27.191Z,9.63
2022-11-03T07:53:58.984Z,10.20
2022-11-03T07:56:28.953Z,10.59
2022-11-03T07:59:01.121Z,10.90
2022-11-03T08:01:32.552Z,10.43
2022-11-03T08:04:05.387Z,11.12
2022-11-03T08:06:35.090Z,11.33
2022-11-03T08:09:07.718Z,10.81
2022-11-03T08:11:35.429Z,10.78
2022-11-03T08:14:09.841Z,11.25
2022-11-03T08:16:39.167Z,11.02
2022-11-03T08:19:07.155Z,11.04
2022-11-03T08:21:35.527Z,11.23
2022-11-03T08:24:03.519Z,11.07
2022-11-03T08:26:34.341Z,11.17
2022-11-03T08:29:02.040Z,10.95
2022-11-03T08:31:29.740Z,11.34
2022-11-03T08:33:58.829Z,11.19
2022-11-03T08:36:26.588Z,11.73
2022-11-03T08:38:54.455Z,12.05
2022-11-03T08:41:22.154Z,11.77
2022-11-03T08:43:51.292Z,12.55
2022-11-03T08:46:19.028Z,12.06
2022-11-03T08:48:47.589Z,12.05
2022-11-03T08:51:17.407Z,12.41
2022-11-03T08:53:46.276Z,11.43
2022-11-03T08:56:16.989Z,12.26
2022-11-03T08:58:47.028Z,11.90
2022-11-03T09:01:15.532Z,12.16
2022-11-03T09:03:43.446Z,12.47
2022-11-03T09:06:11.593Z,12.70
2022-11-03T09:11:28.299Z,13.31
2022-11-03T09:13:57.728Z,13.27
2022-11-03T09:16:25.433Z,13.19
2022-11-03T09:18:55.559Z,14.19
2022-11-03T09:21:23.622Z,13.42
2022-11-03T09:23:55.248Z,13.13
2022-11-03T09:26:23.688Z,13.62
2022-11-03T09:28:51.444Z,14.53
2022-11-03T09:31:19.508Z,13.63
2022-11-03T09:33:47.256Z,14.17
2022-11-03T09:36:15.123Z,14.50
2022-11-03T09:38:43.011Z,13.55
2022-11-03T09:41:26.611Z,14.42
2022-11-03T09:43:58.575Z,13.81
2022-11-03T09:46:27.966Z,13.95
2022-11-03T09:48:56.923Z,13.35
2022-11-03T09:51:27.314Z,13.46
2022-11-03T09:53:57.809Z,13.52
2022-11-03T09:56:28.976Z,13.56
2022-11-03T09:58:56.704Z,13.79
2022-11-03T10:01:24.650Z,13.25
2022-11-03T10:03:52.832Z,14.30
2022-11-03T10:06:21.345Z,14.35
2022-11-03T10:08:50.308Z,14.11
2022-11-03T10:11:18.115Z,15.44
2022-11-03T10:13:52.909Z,15.23
2022-11-03T10:16:24.204Z,15.68
2022-11-03T10:18:53.065Z,15.44
2022-11-03T10:21:24.823Z,15.72
2022-11-03T10:23:52.632Z,14.98
2022-11-03T10:26:21.580Z,15.99
2022-11-03T10:29:09.790Z,15.01
2022-11-03T10:31:39.265Z,15.15
2022-11-03T10:34:08.180Z,15.66
2022-11-03T10:36:36.320Z,15.88
2022-11-03T10:39:25.641Z,16.19
2022-11-03T10:41:58.381Z,16.27
2022-11-03T10:44:29.662Z,15.72
2022-11-03T10:46:59.365Z,16.50
2022-11-03T10:49:29.355Z,15.86
2022-11-03T10:52:06.170Z,15.08
2022-11-03T10:54:36.136Z,15.41
2022-11-03T10:57:03.912Z,14.99
2022-11-03T10:59:36.827Z,14.85
2022-11-03T11:02:11.718Z,15.47
2022-11-03T11:04:39.553Z,14.55
2022-11-03T11:07:23.263Z,14.61
2022-11-03T11:09:51.071Z,14.80
2022-11-03T11:12:21.868Z,14.12
2022-11-03T11:14:56.619Z,14.13
2022-11-03T11:17:42.619Z,14.62
2022-11-03T11:20:34.319Z,14.03
2022-11-03T11:23:48.335Z,13.96
2022-11-03T11:26:33.001Z,14.09
2022-11-03T11:29:43.976Z,13.81
2022-11-03T11:32:53.511Z,14.07
2022-11-03T11:36:03.784Z,13.95
2022-11-03T11:39:06.825Z,13.89
2022-11-03T11:42:13.317Z,14.21
2022-11-03T11:44:54.018Z,14.20
2022-11-03T11:47:28.457Z,14.14
2022-11-03T11:50:27.938Z,14.27
2022-11-03T11:53:27.511Z,14.33
2022-11-03T11:56:00.573Z,14.60
2022-11-03T11:58:42.698Z,14.82
2022-11-03T12:01:23.040Z,15.44
2022-11-03T12:03:53.304Z,15.69
2022-11-03T12:06:34.491Z,16.41
2022-11-03T12:09:07.013Z,15.69
2022-11-03T12:11:46.074Z,16.61
2022-11-03T12:14:27.241Z,16.51
2022-11-03T12:16:55.429Z,16.64
2022-11-03T12:19:38.786Z,17.42
2022-11-03T12:22:08.901Z,16.73
2022-11-03T12:24:48.647Z,16.10
2022-11-03T12:27:40.688Z,15.45
2022-11-03T12:30:15.196Z,15.01
2022-11-03T12:32:42.894Z,14.59
2022-11-03T12:35:13.561Z,15.26
2022-11-03T12:37:42.095Z,15.92
2022-11-03T12:40:13.320Z,15.89
2022-11-03T12:42:41.020Z,15.47
2022-11-03T12:45:12.415Z,15.25
2022-11-03T12:47:40.142Z,15.57
2022-11-03T12:50:08.219Z,16.09
2022-11-03T12:52:35.976Z,15.88
2022-11-03T12:55:04.060Z,15.49
2022-11-03T12:57:31.804Z,15.11
2022-11-03T12:59:59.507Z,14.86
2022-11-03T13:02:28.764Z,15.06
2022-11-03T13:04:56.601Z,14.66
2022-11-03T13:07:30.373Z,14.76
2022-11-03T13:10:01.853Z,15.13
2022-11-03T13:12:32.219Z,14.90
2022-11-03T13:15:02.545Z,14.87
2022-11-03T13:17:40.402Z,14.41
2022-11-03T13:20:16.184Z,14.28
2022-11-03T13:22:44.144Z,14.81
2022-11-03T13:25:11.914Z,14.30
2022-11-03T13:27:39.649Z,14.47
2022-11-03T13:30:09.559Z,14.09
2022-11-03T13:32:38.664Z,14.12
2022-11-03T13:35:12.376Z,14.08
2022-11-03T13:37:41.831Z,14.01
2022-11-03T13:40:29.261Z,14.38
2022-11-03T13:42:59.837Z,14.05
2022-11-03T13:45:27.614Z,14.22
2022-11-03T13:48:48.503Z,13.98
2022-11-03T13:50:45.350Z,13.77
2022-11-03T13:56:05.833Z,13.93
2022-11-03T14:01:24.262Z,13.98
2022-11-03T14:06:41.721Z,13.78
2022-11-03T14:09:10.355Z,13.85
2022-11-03T14:11:55.702Z,13.71
2022-11-03T14:14:25.636Z,13.72
2022-11-03T14:16:53.449Z,13.52
2022-11-03T14:19:29.428Z,13.81
2022-11-03T14:22:01.540Z,14.02
2022-11-03T14:24:29.404Z,14.07
2022-11-03T14:26:57.148Z,13.88
2022-11-03T14:29:24.912Z,13.81
2022-11-03T14:31:52.575Z,13.88
2022-11-03T14:34:20.355Z,13.47
2022-11-03T14:36:52.118Z,13.73
2022-11-03T14:39:20.035Z,13.97
2022-11-03T14:42:04.756Z,13.96
2022-11-03T14:44:33.705Z,13.61
2022-11-03T14:47:02.674Z,13.87
2022-11-03T14:49:30.674Z,13.84
2022-11-03T14:52:01.666Z,13.62
2022-11-03T14:54:30.518Z,13.65
2022-11-03T14:56:58.509Z,13.64
2022-11-03T14:59:27.178Z,13.33
2022-11-03T15:01:55.947Z,13.43
2022-11-03T15:04:24.051Z,13.34
2022-11-03T15:06:54.497Z,13.35
2022-11-03T15:09:23.670Z,13.23
2022-11-03T15:11:51.688Z,13.22
2022-11-03T15:14:19.457Z,13.01
2022-11-03T15:16:48.023Z,13.17
2022-11-03T15:19:15.783Z,13.20
2022-11-03T15:21:43.680Z,13.29
2022-11-03T15:27:00.807Z,13.07
2022-11-03T15:29:28.549Z,13.40
2022-11-03T15:31:56.225Z,13.15
2022-11-03T15:34:24.020Z,12.79
2022-11-03T15:36:51.748Z,12.84
2022-11-03T15:39:19.469Z,12.91
2022-11-03T15:41:47.304Z,13.11
2022-11-03T15:44:18.661Z,12.59
2022-11-03T15:46:46.379Z,12.87
2022-11-03T15:49:14.070Z,12.84
2022-11-03T15:51:41.750Z,12.51
2022-11-03T15:54:09.511Z,12.55
2022-11-03T15:56:37.247Z,12.13
2022-11-03T15:59:04.988Z,12.53
2022-11-03T16:01:35.194Z,12.27
2022-11-03T16:04:02.944Z,12.66
2022-11-03T16:09:18.386Z,12.46
2022-11-03T16:11:47.318Z,12.25
2022-11-03T16:14:16.375Z,12.23
2022-11-03T16:16:45.874Z,12.29
2022-11-03T16:19:13.604Z,12.18
2022-11-03T16:21:41.437Z,12.17
2022-11-03T16:24:09.740Z,12.42
2022-11-03T16:26:37.515Z,12.11
2022-11-03T16:29:05.212Z,12.20
2022-11-03T16:31:32.907Z,12.08
2022-11-03T16:34:02.771Z,12.21
2022-11-03T16:36:30.810Z,12.00
2022-11-03T16:38:58.540Z,12.07
2022-11-03T16:41:26.353Z,12.04
2022-11-03T16:43:54.085Z,11.95
2022-11-03T16:46:21.836Z,12.04
2022-11-03T16:48:49.730Z,11.89
2022-11-03T16:51:19.362Z,11.88
2022-11-03T16:53:47.074Z,11.93
2022-11-03T16:56:14.891Z,11.94
2022-11-03T16:58:42.583Z,11.58
2022-11-03T17:01:10.306Z,11.82
2022-11-03T17:03:38.086Z,11.73
2022-11-03T17:06:06.171Z,11.65
2022-11-03T17:11:36.745Z,11.78
2022-11-03T17:14:06.169Z,11.90
2022-11-03T17:16:34.258Z,11.72
2022-11-03T17:19:02.066Z,11.59
2022-11-03T17:21:29.797Z,11.65
2022-11-03T17:24:00.224Z,11.77
2022-11-03T17:26:42.073Z,11.49
2022-11-03T17:29:16.369Z,11.67
2022-11-03T17:31:44.197Z,11.48
2022-11-03T17:34:12.978Z,11.60
2022-11-03T17:36:41.213Z,11.56
2022-11-03T17:39:14.785Z,11.48
2022-11-03T17:41:42.743Z,11.74
2022-11-03T17:44:12.495Z,11.65
2022-11-03T17:46:40.385Z,11.38
2022-11-03T17:49:08.140Z,11.59
2022-11-03T17:51:38.320Z,11.50
2022-11-03T17:54:08.141Z,11.53
2022-11-03T17:56:37.298Z,11.48
2022-11-03T17:59:05.663Z,11.17
2022-11-03T18:01:33.676Z,11.44
2022-11-03T18:04:02.722Z,11.40
2022-11-03T18:06:30.740Z,11.24
2022-11-03T18:08:59.347Z,11.38
2022-11-03T18:11:47.271Z,11.19
2022-11-03T18:14:16.944Z,11.26
2022-11-03T18:16:44.671Z,11.58
2022-11-03T18:19:13.646Z,11.42
2022-11-03T18:21:42.011Z,11.18
2022-11-03T18:24:13.334Z,11.11
2022-11-03T18:26:41.239Z,11.06
2022-11-03T18:29:09.271Z,11.04
2022-11-03T18:31:44.005Z,11.05
2022-11-03T18:34:15.835Z,11.20
2022-11-03T18:36:44.345Z,11.21
2022-11-03T18:39:17.878Z,11.02
2022-11-03T18:41:45.948Z,11.01
2022-11-03T18:44:18.753Z,11.08
2022-11-03T18:46:48.168Z,10.93
2022-11-03T18:49:16.771Z,10.94
2022-11-03T18:51:48.599Z,10.94
2022-11-03T18:54:21.623Z,10.92
2022-11-03T18:56:50.333Z,10.91
2022-11-03T18:59:23.745Z,10.97
2022-11-03T19:01:53.299Z,10.70
2022-11-03T19:04:21.152Z,11.12
2022-11-03T19:06:50.651Z,11.13
2022-11-03T19:09:24.708Z,11.05
2022-11-03T19:11:55.855Z,10.96
2022-11-03T19:14:27.575Z,10.62
2022-11-03T19:19:45.553Z,10.84
2022-11-03T19:22:14.794Z,10.85
2022-11-03T19:24:42.916Z,11.02
2022-11-03T19:27:16.191Z,11.06
2022-11-03T19:29:47.216Z,10.85
2022-11-03T19:32:21.840Z,10.91
2022-11-03T19:34:56.092Z,10.99
2022-11-03T19:37:23.896Z,11.01
2022-11-03T19:39:51.699Z,10.88
2022-11-03T19:42:29.308Z,11.17
2022-11-03T19:44:58.143Z,11.04
2022-11-03T19:47:32.581Z,11.08
2022-11-03T19:50:02.492Z,11.17
2022-11-03T19:52:31.329Z,11.23
2022-11-03T19:55:01.987Z,10.98
2022-11-03T19:57:29.765Z,11.18
2022-11-03T19:59:59.091Z,11.16
2022-11-03T20:02:29.789Z,11.18
2022-11-03T20:04:58.988Z,11.02
2022-11-03T20:07:31.528Z,11.30
2022-11-03T20:10:00.935Z,11.01
2022-11-03T20:12:30.867Z,11.16
2022-11-03T20:15:01.642Z,10.91
2022-11-03T20:17:30.764Z,10.80
2022-11-03T20:19:58.465Z,10.83
2022-11-03T20:22:30.180Z,11.30
2022-11-03T20:25:03.170Z,11.27
2022-11-03T20:27:30.945Z,11.01
2022-11-03T20:29:58.688Z,11.24
2022-11-03T20:32:26.422Z,10.76
2022-11-03T20:34:55.759Z,10.81
2022-11-03T20:37:23.502Z,10.88
2022-11-03T20:39:51.300Z,10.86
2022-11-03T20:42:22.420Z,10.91
2022-11-03T20:44:50.664Z,10.60
2022-11-03T20:47:18.996Z,10.85
2022-11-03T20:49:46.865Z,10.68
2022-11-03T20:52:17.125Z,10.92
2022-11-03T20:54:45.153Z,11.02
2022-11-03T20:57:14.392Z,10.76
2022-11-03T20:59:42.201Z,10.72
2022-11-03T21:02:12.227Z,10.88
2022-11-03T21:04:40.947Z,10.78
2022-11-03T21:07:12.139Z,10.82
2022-11-03T21:09:41.418Z,10.65
2022-11-03T21:12:13.111Z,10.67
2022-11-03T21:15:04.037Z,10.41
2022-11-03T21:17:49.176Z,10.62
2022-11-03T21:20:17.059Z,10.56
2022-11-03T21:22:53.723Z,10.96
2022-11-03T21:25:24.961Z,10.87
2022-11-03T21:27:54.466Z,10.71
2022-11-03T21:30:23.263Z,10.91
2022-11-03T21:32:51.124Z,10.72
2022-11-03T21:35:21.364Z,10.58
2022-11-03T21:37:49.484Z,10.58
2022-11-03T21:40:17.633Z,10.67
2022-11-03T21:43:04.059Z,10.67
2022-11-03T21:45:32.140Z,10.77
2022-11-03T21:48:17.829Z,10.62
2022-11-03T21:50:46.151Z,10.70
2022-11-03T21:53:14.138Z,10.67
2022-11-03T21:55:42.201Z,10.54
2022-11-03T21:58:11.331Z,10.41
2022-11-03T22:00:39.085Z,10.48
2022-11-03T22:03:09.614Z,10.44
2022-11-03T22:05:37.864Z,10.56
2022-11-03T22:08:08.629Z,10.55
2022-11-03T22:10:39.432Z,10.76
2022-11-03T22:13:07.512Z,10.54
2022-11-03T22:15:54.370Z,10.57
2022-11-03T22:18:22.150Z,10.50
2022-11-03T22:21:07.442Z,10.75
2022-11-03T22:23:52.896Z,10.74
2022-11-03T22:26:38.280Z,10.77
2022-11-03T22:29:25.761Z,10.56
2022-11-03T22:31:54.837Z,10.62
2022-11-03T22:34:40.114Z,10.79
2022-11-03T22:37:07.840Z,10.69
2022-11-03T22:39:53.711Z,10.84
2022-11-03T22:42:39.200Z,10.88
2022-11-03T22:45:24.873Z,10.46
2022-11-03T22:47:57.136Z,10.59
2022-11-03T22:50:25.536Z,10.59
2022-11-03T22:52:53.311Z,10.55
2022-11-03T22:55:20.014Z,10.53
2022-11-03T22:57:47.702Z,10.59
2022-11-03T23:00:17.031Z,10.48
2022-11-03T23:02:44.752Z,10.58
2022-11-03T23:05:13.914Z,10.61
2022-11-03T23:07:41.905Z,10.71
2022-11-03T23:10:10.049Z,10.48
2022-11-03T23:12:37.779Z,10.52
2022-11-03T23:15:23.869Z,10.63
2022-11-03T23:18:14.487Z,10.93
2022-11-03T23:21:00.974Z,10.66
2022-11-03T23:23:46.805Z,10.80
2022-11-03T23:26:14.688Z,10.83
2022-11-03T23:28:42.774Z,10.70
2022-11-03T23:31:11.085Z,10.75
2022-11-03T23:33:39.237Z,10.86
2022-11-03T23:36:10.795Z,10.70
2022-11-03T23:38:39.198Z,10.72
2022-11-03T23:41:09.618Z,10.65
2022-11-03T23:43:37.373Z,10.71
2022-11-03T23:46:23.153Z,10.65
2022-11-03T23:48:52.169Z,10.70
2022-11-03T23:51:22.396Z,10.89
2022-11-03T23:53:50.772Z,10.41
2022-11-03T23:56:38.194Z,10.31
2022-11-03T23:59:06.593Z,10.50
